Airfield :
LOGIN :

Register | Disclaimer

   EN    FR    IT 

 










Legend :    VFR   Marginal VFR   IFR   Intensive IFR   Very Intensive IFR
Visi :
Ceiling :
>= 8 km
>= 3000ft
5 to 8 km
1000 to 3000 ft
1500m to 5 km
500 to 1000 ft
800 to 1500m
200 to 500 ft
< 800m
< 200 ft
Symbols :   Thunderstorms  Fog  Heavy snow  Heavy precipitations  Wind > 20 kt
SIGMETs :     Misc.  Thunderstorms  Icing  Turbulence  Mountain Waves  Volcanic Ashes






- Airport Elevation : 5600 ft
- IATA code : SMV


LSZS - Samedan

CURRENT METAR :
  • 290750Z 17001KT 2600 -SN OVC003 M04/M05 Q1012 RMK D TL180

EXPIRED METARs :
  • 290720Z 00000KT 1600 -SN OVC004 M04/M05 Q1012 RMK B TL180
  • 290650Z 23001KT 1600 BR OVC002 M05/M05 Q1011 RESN RMK A TL180
  • 290620Z AUTO 00000KT 3100 BR OVC002 M05/M06 Q1011 REFZDZ
  • 290550Z AUTO 22001KT 0300 FZFG VV001 M05/M06 Q1011

TAF AMD TAF LSZS
Valid from the 29 at 06:00 until the 29 at 15:00 UTC


290652Z 2906/2915 VRB02KT 8000 FEW012 SCT055 BKN070 TX01/2914Z
TEMPO 2906/2915 4000 -SN BKN003
PROB40
TEMPO 2906/2915 1500 SN VV008
ATIS : +41 81 834 93 24



MET'MAP, your aeronautical weather chart ! - Copyright ORBIFLY December 2007 - Disclaimer

ORBIFLY MET'MAP TEAM :

Programming & Development : Alexandra Zaïnal
Original concept : Baudouin d'Aumeries
Technical & hardware support : Manuel Goepfert
Assistance : Marc-Olivier Méhu




SOURCES & CREDITS :

   NOAA